Latest Weather Observations for Cape Willoughby

IDS60801

Issued at 7:01 am CST Friday 4 September 2015 (issued every 30 minutes, with the page automatically refreshed every 10 minutes)

About weather observations | Map of weather stations | Latest weather observations for SA | Other Formats
Station Details ID: 022803 Name: CAPE WILLOUGHBY Lat: -35.84 Lon: 138.13 Height: 55.0 m
Data from the previous 72 hours. | See also: Recent months at Cape Willoughby
Date/Time
CST
Temp
°C
App
Temp
°C
Dew
Point
Rel
Hum
%
Delta-T
°C
Wind Press
QNH
hPa
Press
MSL
hPa
Rain
since 9 am
mm
Dir
 
Spd
km/h
Gust
km/h
Spd
kts
Gust
kts
04/07:00am 11.1 6.7 4.8 65 2.8 S 17 22 9 12 1027.8 1027.8 0.0
04/06:30am 11.0 7.8 6.7 75 2.0 SE 13 17 7 9 1027.4 1027.4 0.0
04/06:00am 10.7 7.3 5.9 72 2.2 SSE 13 19 7 10 1027.1 1027.1 0.0
04/05:30am 10.6 8.4 6.0 73 2.1 SSE 7 11 4 6 1026.8 1026.8 0.0
04/05:00am 10.4 5.8 6.7 78 1.7 SSE 20 26 11 14 1026.5 1026.5 0.0
04/04:30am 10.9 7.2 6.3 73 2.1 SSE 15 20 8 11 1026.5 1026.5 0.0
04/04:00am 11.0 7.0 6.6 74 2.1 SSE 17 24 9 13 1026.4 1026.4 0.0
04/03:30am 11.1 8.1 6.0 71 2.4 S 11 19 6 10 1026.3 1026.3 0.0
04/03:00am 11.0 7.4 6.6 74 2.1 S 15 20 8 11 1026.5 1026.5 0.0
04/02:30am 10.9 5.2 6.5 74 2.1 S 26 33 14 18 1026.6 1026.6 0.0
04/02:00am 11.0 7.1 7.1 77 1.9 S 17 28 9 15 1027.0 1027.0 0.0
04/01:30am 11.0 7.4 6.9 76 1.9 SSE 15 20 8 11 1027.0 1027.0 0.0
04/01:00am 11.2 6.9 6.9 75 2.0 SSE 19 26 10 14 1026.8 1026.8 0.0
04/12:30am 11.1 5.6 5.8 70 2.4 S 24 32 13 17 1026.9 1026.9 0.0
04/12:00am 11.1 7.5 6.8 75 2.0 S 15 30 8 16 1027.0 1027.0 0.0
 
Date/Time
CST
Temp
°C
App
Temp
°C
Dew
Point
Rel
Hum
%
Delta-T
°C
Wind Press
QNH
hPa
Press
MSL
hPa
Rain
since 9 am
mm
Dir
 
Spd
km/h
Gust
km/h
Spd
kts
Gust
kts
03/11:30pm 11.3 7.4 7.2 76 2.0 SSE 17 22 9 12 1026.9 1026.9 0.0
03/11:00pm 11.1 7.4 6.3 72 2.3 SSE 15 20 8 11 1026.9 1026.9 0.0
03/10:30pm 11.1 5.6 7.4 78 1.8 SE 26 32 14 17 1026.9 1026.9 0.0
03/10:00pm 11.4 6.6 5.7 68 2.6 S 20 28 11 15 1026.7 1026.7 0.0
03/09:30pm 11.3 6.9 7.4 77 1.9 S 20 24 11 13 1026.6 1026.6 0.0
03/09:00pm 11.2 5.5 6.9 75 2.0 S 26 32 14 17 1026.4 1026.4 0.0
03/08:30pm 11.4 6.4 7.9 79 1.7 SSE 24 30 13 16 1026.3 1026.3 0.0
03/08:00pm 11.3 7.1 7.6 78 1.8 S 19 22 10 12 1026.1 1026.1 0.0
03/07:30pm 10.9 4.8 8.1 83 1.4 SSE 30 39 16 21 1025.7 1025.7 0.0
03/07:00pm 11.5 4.9 7.8 78 1.8 S 32 37 17 20 1025.4 1025.4 0.0
03/06:30pm 11.9 5.6 7.2 73 2.3 S 30 35 16 19 1025.2 1025.2 0.0
03/06:00pm 11.7 5.5 7.8 77 1.9 S 30 35 16 19 1024.8 1024.8 0.0
03/05:30pm 11.9 6.4 7.6 75 2.1 S 26 32 14 17 1024.6 1024.6 0.0
03/05:00pm 11.9 6.2 8.2 78 1.8 S 28 35 15 19 1024.2 1024.2 0.0
03/04:30pm 12.2 6.0 7.9 75 2.1 S 30 35 16 19 1023.6 1023.6 0.0
03/04:00pm 12.1 5.3 7.8 75 2.1 S 33 39 18 21 1023.2 1023.2 0.0
03/03:30pm 12.3 5.0 8.8 79 1.7 S 37 43 20 23 1022.8 1022.8 0.0
03/03:00pm 12.3 5.3 8.6 78 1.8 S 35 41 19 22 1022.5 1022.5 0.0
03/02:30pm 12.5 6.1 8.6 77 1.9 S 32 39 17 21 1022.5 1022.5 0.0
03/02:00pm 12.4 5.8 8.5 77 1.9 S 33 44 18 24 1022.3 1022.3 0.0
03/01:30pm 12.5 5.7 9.1 80 1.7 S 35 44 19 24 1022.4 1022.4 0.0
03/01:00pm 12.4 6.0 9.2 81 1.6 S 33 43 18 23 1022.3 1022.3 0.0
03/12:30pm 12.6 5.9 9.8 83 1.4 S 35 44 19 24 1022.4 1022.4 0.0
03/12:00pm 12.8 5.4 10.0 83 1.4 S 39 48 21 26 1022.2 1022.2 0.0
03/11:30am 12.4 5.1 10.1 86 1.2 S 39 48 21 26 1022.1 1022.1 0.0
03/11:00am 12.5 4.4 10.0 85 1.3 S 43 52 23 28 1021.8 1021.8 0.0
03/10:30am 12.3 4.7 10.4 88 1.0 S 41 50 22 27 1021.5 1021.5 0.0
03/10:00am 12.6 5.4 10.7 88 1.0 S 39 48 21 26 1021.4 1021.4 0.0
03/09:30am 12.4 5.5 10.3 87 1.1 S 37 48 20 26 1020.8 1020.8 0.0
03/09:00am 12.9 4.9 10.6 86 1.2 S 43 52 23 28 1020.1 1020.1 0.6
03/08:30am 13.0 4.7 10.2 83 1.4 S 44 57 24 31 1019.1 1019.1 0.6
03/08:00am 12.8 4.2 10.3 85 1.3 S 46 59 25 32 1018.2 1018.2 0.6
03/07:30am 12.7 3.7 10.4 86 1.2 S 48 59 26 32 1017.7 1017.7 0.6
03/07:00am 12.9 3.9 10.4 85 1.3 S 48 61 26 33 1017.1 1017.1 0.6
03/06:30am 13.0 4.9 10.7 86 1.2 S 44 56 24 30 1016.5 1016.5 0.6
03/06:00am 13.0 4.5 10.7 86 1.2 S 46 59 25 32 1015.8 1015.8 0.6
03/05:30am 13.1 4.6 10.8 86 1.2 S 46 61 25 33 1015.4 1015.4 0.6
03/05:00am 13.1 5.6 11.0 87 1.1 S 41 52 22 28 1014.7 1014.7 0.6
03/04:30am 12.7 4.4 10.2 85 1.3 S 44 54 24 29 1013.8 1013.8 0.6
03/04:00am 12.4 6.5 11.0 91 0.7 S 33 43 18 23 1013.5 1013.5 0.6
03/03:30am 12.1 7.9 11.2 94 0.5 S 24 37 13 20 1013.2 1013.2 0.6
03/03:00am 11.9 4.6 10.3 90 0.8 S 39 50 21 27 1012.5 1012.5 0.6
03/02:30am 12.7 7.5 10.2 85 1.3 S 28 39 15 21 1012.6 1012.6 0.6
03/02:00am 12.6 6.5 9.8 83 1.4 S 32 41 17 22 1012.4 1012.4 0.6
03/01:30am 12.5 6.2 9.7 83 1.4 S 33 43 18 23 1012.2 1012.2 0.6
03/01:00am 12.5 6.7 9.5 82 1.5 S 30 37 16 20 1011.9 1011.9 0.6
03/12:30am 11.8 8.2 10.4 91 0.7 SSE 20 28 11 15 1011.7 1011.7 0.6
03/12:00am 11.6 5.4 9.9 89 0.9 S 33 44 18 24 1011.3 1011.3 0.6
 
Date/Time
CST
Temp
°C
App
Temp
°C
Dew
Point
Rel
Hum
%
Delta-T
°C
Wind Press
QNH
hPa
Press
MSL
hPa
Rain
since 9 am
mm
Dir
 
Spd
km/h
Gust
km/h
Spd
kts
Gust
kts
02/11:30pm 12.3 5.6 8.2 76 2.0 S 33 43 18 23 1010.7 1010.7 0.6
02/11:00pm 12.4 6.5 9.1 80 1.7 S 30 41 16 22 1010.5 1010.5 0.6
02/10:30pm 12.1 6.5 8.6 79 1.7 S 28 33 15 18 1010.0 1010.0 0.6
02/10:00pm 12.3 7.9 9.0 80 1.7 SSE 22 28 12 15 1009.6 1009.6 0.6
02/09:30pm 12.1 6.9 8.9 81 1.6 SSE 26 33 14 18 1008.9 1008.9 0.6
02/09:00pm 12.3 4.7 9.1 81 1.6 S 39 48 21 26 1008.5 1008.5 0.6
02/08:30pm 12.1 4.8 8.8 80 1.7 S 37 48 20 26 1007.8 1007.8 0.6
02/08:00pm 12.0 4.6 8.3 78 1.8 S 37 43 20 23 1007.1 1007.1 0.6
02/07:30pm 11.7 5.5 9.4 86 1.2 S 32 37 17 20 1006.5 1006.5 0.6
02/07:00pm 11.3 5.3 8.7 84 1.3 SSE 30 37 16 20 1005.6 1005.6 0.6
02/06:30pm 11.0 6.1 8.6 85 1.2 SSE 24 32 13 17 1004.9 1004.9 0.6
02/06:00pm 11.1 5.1 8.7 85 1.2 SSE 30 41 16 22 1004.5 1004.5 0.6
02/05:30pm 11.3 6.9 9.0 86 1.2 SSE 22 26 12 14 1004.0 1003.9 0.6
02/05:00pm 11.3 7.6 9.6 89 0.9 SE 19 24 10 13 1003.4 1003.3 0.6
02/04:30pm 11.2 7.3 9.5 89 0.9 SE 20 22 11 12 1002.7 1002.6 0.6
02/04:00pm 11.1 8.2 9.5 90 0.8 SE 15 19 8 10 1002.2 1002.1 0.6
02/03:30pm 11.0 8.7 9.1 88 1.0 E 11 15 6 8 1001.8 1001.7 0.6
02/03:00pm 11.1 8.9 9.4 89 0.9 NE 11 13 6 7 1001.5 1001.4 0.4
02/02:30pm 10.9 7.1 9.0 88 1.0 N 19 22 10 12 1001.1 1001.1 0.2
02/02:00pm 11.0 6.8 9.6 91 0.7 N 22 26 12 14 1001.0 1001.0 0.2
02/01:30pm 11.1 4.7 9.5 90 0.8 N 33 43 18 23 1001.0 1001.0 0.2
02/01:00pm 11.5 5.4 9.6 88 1.0 N 32 43 17 23 1001.6 1001.5 0.2
02/12:30pm 11.6 6.3 10.0 90 0.8 N 28 35 15 19 1001.8 1001.7 0.2
02/12:00pm 12.1 3.7 9.1 82 1.5 N 43 52 23 28 1002.0 1001.9 0.0
02/11:30am 12.9 5.4 9.5 80 1.7 N 39 46 21 25 1002.3 1002.2 0.0
02/11:00am 14.0 5.7 10.2 78 2.0 N 44 52 24 28 1002.5 1002.4 0.0
02/10:30am 13.6 4.9 10.0 79 1.9 N 46 52 25 28 1002.6 1002.5 0.0
02/10:00am 13.2 4.1 10.0 81 1.7 N 48 54 26 29 1002.7 1002.6 0.0
02/09:30am 12.8 4.3 9.4 80 1.7 N 44 52 24 28 1003.2 1003.1 0.0
02/09:00am 12.3 2.0 9.7 84 1.3 N 54 61 29 33 1003.0 1002.9 2.6
02/08:30am 12.4 1.8 9.8 84 1.3 N 56 65 30 35 1002.8 1002.7 2.6
02/08:00am 11.7 0.8 9.6 87 1.1 N 57 67 31 36 1002.6 1002.5 2.6
02/07:30am 11.8 1.2 9.9 88 1.0 N 56 67 30 36 1002.4 1002.3 2.6
02/07:00am 11.8 0.9 9.7 87 1.1 N 57 69 31 37 1002.4 1002.3 2.6
02/06:30am 11.9 1.2 9.6 86 1.2 N 56 65 30 35 1002.3 1002.2 2.6
02/06:00am 11.9 1.3 10.0 88 1.0 N 56 61 30 33 1002.5 1002.4 2.6
02/05:30am 11.9 1.8 10.3 90 0.8 N 54 61 29 33 1002.4 1002.3 2.6
02/05:00am 12.1 2.8 10.5 90 0.8 N 50 57 27 31 1002.5 1002.4 2.6
02/04:30am 11.9 2.1 10.1 89 0.9 N 52 59 28 32 1002.3 1002.2 2.6
02/04:00am 11.9 2.8 10.0 88 1.0 N 48 57 26 31 1002.0 1001.9 2.6
02/03:30am 12.1 3.9 10.5 90 0.8 N 44 52 24 28 1002.8 1002.7 2.6
02/03:00am 12.1 4.5 10.5 90 0.8 N 41 50 22 27 1003.1 1003.0 2.6
02/02:30am 12.1 2.5 10.7 91 0.7 N 52 63 28 34 1004.1 1004.0 2.6
02/02:00am 12.2 2.9 10.6 90 0.8 N 50 57 27 31 1004.9 1004.9 2.6
02/01:30am 12.1 2.3 10.2 88 1.0 N 52 69 28 37 1004.6 1004.6 2.6
02/01:25am 12.1 3.5 10.2 88 1.0 N 46 67 25 36 1004.6 1004.6 2.6
02/01:00am 11.7 3.7 10.4 92 0.7 N 43 52 23 28 1005.1 1005.1 2.6
02/12:30am 11.6 1.5 10.5 93 0.6 N 54 63 29 34 1005.2 1005.2 2.4
02/12:00am 11.5 3.8 10.2 92 0.7 NNW 41 50 22 27 1005.9 1005.9 1.6
 
Date/Time
CST
Temp
°C
App
Temp
°C
Dew
Point
Rel
Hum
%
Delta-T
°C
Wind Press
QNH
hPa
Press
MSL
hPa
Rain
since 9 am
mm
Dir
 
Spd
km/h
Gust
km/h
Spd
kts
Gust
kts
01/11:45pm 11.6 2.6 10.2 91 0.7 NNW 48 59 26 32 1005.8 1005.8 1.2
01/11:30pm 12.2 0.0 10.3 88 1.0 N 65 78 35 42 1005.6 1005.6 0.6
01/11:00pm 13.9 1.3 8.9 72 2.5 N 65 78 35 42 1005.0 1005.0 0.6
01/10:47pm 13.9 4.9 8.7 71 2.6 N 46 63 25 34 1005.4 1005.4 0.6
01/10:30pm 14.5 7.0 8.0 65 3.3 N 37 46 20 25 1006.4 1006.4 0.6
01/10:00pm 14.3 8.8 9.1 71 2.7 NNE 28 32 15 17 1006.5 1006.5 0.6
01/09:30pm 14.2 7.9 9.0 71 2.7 NNE 32 35 17 19 1006.1 1006.1 0.6
01/09:00pm 14.0 8.1 9.0 72 2.6 NNE 30 33 16 18 1006.0 1006.0 0.6
01/08:30pm 13.6 9.2 10.4 81 1.7 N 24 26 13 14 1006.6 1006.6 0.6
01/08:00pm 13.8 7.7 9.6 76 2.2 N 32 33 17 18 1006.4 1006.4 0.6
01/07:30pm 13.7 7.4 9.6 76 2.1 N 33 37 18 20 1006.5 1006.5 0.6
01/07:00pm 13.7 6.6 9.6 76 2.1 N 37 48 20 26 1006.5 1006.5 0.6
01/06:48pm 13.5 7.3 9.2 75 2.2 N 32 44 17 24 1006.6 1006.6 0.6
01/06:30pm 13.1 8.9 9.9 81 1.7 N 22 24 12 13 1007.1 1007.1 0.6
01/06:00pm 13.3 8.3 9.4 77 2.0 N 26 30 14 16 1007.4 1007.4 0.2
01/05:30pm 13.5 9.0 10.1 80 1.8 N 24 30 13 16 1007.5 1007.5 0.0
01/05:00pm 13.3 6.9 9.2 76 2.1 N 33 39 18 21 1007.5 1007.5 0.0
01/04:30pm 13.7 7.4 9.6 76 2.1 N 33 39 18 21 1007.8 1007.8 0.0
01/04:00pm 14.8 5.2 8.1 64 3.4 NNW 48 59 26 32 1007.4 1007.4 0.0
01/03:30pm 15.1 6.9 8.3 64 3.4 N 41 50 22 27 1007.7 1007.7 0.0
01/03:00pm 15.2 5.7 8.2 63 3.5 N 48 57 26 31 1007.7 1007.7 0.0
01/02:30pm 15.5 7.3 8.0 61 3.8 N 41 50 22 27 1008.0 1008.0 0.0
01/02:00pm 15.3 7.1 8.3 63 3.5 N 41 50 22 27 1008.2 1008.2 0.0
01/01:54pm 15.3 7.7 7.6 60 3.8 N 37 50 20 27 1008.2 1008.2 0.0
01/01:30pm 15.1 10.4 7.9 62 3.6 NNW 22 30 12 16 1009.0 1009.0 0.0
01/01:00pm 15.6 9.1 8.1 61 3.8 N 32 35 17 19 1009.2 1009.2 0.0
01/12:30pm 16.0 10.3 9.7 66 3.3 N 30 33 16 18 1009.8 1009.8 0.0
01/12:00pm 15.4 8.9 8.9 65 3.3 NNW 33 43 18 23 1010.5 1010.5 0.0
01/11:30am 16.2 11.6 9.6 65 3.4 N 24 35 13 19 1010.9 1010.9 0.0
01/11:00am 16.9 13.9 10.7 67 3.3 N 17 26 9 14 1011.3 1011.3 0.0
01/10:30am 16.3 13.3 9.3 63 3.6 NNE 15 24 8 13 1011.6 1011.6 0.0
01/10:00am 15.9 14.0 10.4 70 2.9 NNE 11 15 6 8 1012.0 1012.0 0.0
01/09:30am 15.5 12.8 10.5 72 2.6 NNE 15 19 8 10 1012.0 1012.0 0.0
01/09:00am 14.4 11.3 10.2 76 2.2 N 17 20 9 11 1012.0 1012.0 1.6
01/08:30am 13.2 9.2 10.6 84 1.4 NNW 22 28 12 15 1012.4 1012.4 1.6
01/08:00am 12.5 6.3 9.5 82 1.5 NNW 32 37 17 20 1012.4 1012.4 1.6
01/07:30am 12.1 5.9 9.3 83 1.4 NW 32 39 17 21 1012.4 1012.4 0.8

Other Formats:

Comma delimited format used in spreadsheet applications
http://www.bom.gov.au/fwo/IDS60801/IDS60801.94822.axf

JavaScript Object Notation format (JSON) in row-major order
http://www.bom.gov.au/fwo/IDS60801/IDS60801.94822.json